sensor_id;sensor_type;location;lat;lon;timestamp;pressure;altitude;pressure_sealevel;temperature;humidity
71970;BME280;59838;52.152;5.436;2023-12-29T00:00:10;100673.66;;;9.51;100.00
71970;BME280;59838;52.152;5.436;2023-12-29T00:02:37;100675.88;;;9.54;100.00
71970;BME280;59838;52.152;5.436;2023-12-29T00:05:04;100669.69;;;9.55;100.00
71970;BME280;59838;52.152;5.436;2023-12-29T00:07:30;100678.38;;;9.62;100.00
71970;BME280;59838;52.152;5.436;2023-12-29T00:09:57;100658.44;;;9.63;100.00
71970;BME280;59838;52.152;5.436;2023-12-29T00:12:24;100670.78;;;9.61;100.00
71970;BME280;59838;52.152;5.436;2023-12-29T00:14:50;100665.06;;;9.65;100.00
71970;BME280;59838;52.152;5.436;2023-12-29T00:17:17;100669.59;;;9.63;100.00
71970;BME280;59838;52.152;5.436;2023-12-29T00:19:43;100676.16;;;9.59;100.00
71970;BME280;59838;52.152;5.436;2023-12-29T00:22:10;100673.47;;;9.52;100.00
71970;BME280;59838;52.152;5.436;2023-12-29T00:24:37;100683.72;;;9.46;100.00
71970;BME280;59838;52.152;5.436;2023-12-29T00:27:06;100677.66;;;9.39;100.00
71970;BME280;59838;52.152;5.436;2023-12-29T00:29:32;100679.38;;;9.31;100.00
71970;BME280;59838;52.152;5.436;2023-12-29T00:32:01;100669.69;;;9.25;100.00
71970;BME280;59838;52.152;5.436;2023-12-29T00:34:29;100652.09;;;9.21;100.00
71970;BME280;59838;52.152;5.436;2023-12-29T00:36:55;100659.25;;;9.19;100.00
71970;BME280;59838;52.152;5.436;2023-12-29T00:39:22;100663.59;;;9.18;100.00
71970;BME280;59838;52.152;5.436;2023-12-29T00:41:56;100661.00;;;9.18;100.00
71970;BME280;59838;52.152;5.436;2023-12-29T00:44:23;100659.69;;;9.22;100.00
71970;BME280;59838;52.152;5.436;2023-12-29T00:46:50;100644.41;;;9.27;100.00
71970;BME280;59838;52.152;5.436;2023-12-29T00:49:16;100647.06;;;9.34;100.00
71970;BME280;59838;52.152;5.436;2023-12-29T00:51:43;100626.78;;;9.38;100.00
71970;BME280;59838;52.152;5.436;2023-12-29T00:54:10;100629.19;;;9.39;100.00
71970;BME280;59838;52.152;5.436;2023-12-29T00:56:36;100618.63;;;9.41;100.00
71970;BME280;59838;52.152;5.436;2023-12-29T00:59:03;100644.38;;;9.42;100.00
71970;BME280;59838;52.152;5.436;2023-12-29T01:01:35;100649.03;;;9.47;100.00
71970;BME280;59838;52.152;5.436;2023-12-29T01:04:02;100634.56;;;9.52;100.00
71970;BME280;59838;52.152;5.436;2023-12-29T01:06:29;100630.78;;;9.55;100.00
71970;BME280;59838;52.152;5.436;2023-12-29T01:08:56;100633.03;;;9.58;100.00
71970;BME280;59838;52.152;5.436;2023-12-29T01:11:23;100643.03;;;9.61;100.00
71970;BME280;59838;52.152;5.436;2023-12-29T01:13:50;100643.47;;;9.65;100.00
71970;BME280;59838;52.152;5.436;2023-12-29T01:16:16;100640.53;;;9.68;100.00
71970;BME280;59838;52.152;5.436;2023-12-29T01:18:43;100644.91;;;9.67;100.00
71970;BME280;59838;52.152;5.436;2023-12-29T01:21:11;100640.72;;;9.66;100.00
71970;BME280;59838;52.152;5.436;2023-12-29T01:23:37;100633.94;;;9.65;100.00
71970;BME280;59838;52.152;5.436;2023-12-29T01:26:03;100617.63;;;9.72;100.00
71970;BME280;59838;52.152;5.436;2023-12-29T01:28:30;100638.84;;;9.75;100.00
71970;BME280;59838;52.152;5.436;2023-12-29T01:30:56;100638.38;;;9.72;100.00
71970;BME280;59838;52.152;5.436;2023-12-29T01:33:23;100626.84;;;9.74;100.00
71970;BME280;59838;52.152;5.436;2023-12-29T01:35:50;100635.97;;;9.70;100.00
71970;BME280;59838;52.152;5.436;2023-12-29T01:38:17;100624.44;;;9.73;100.00
71970;BME280;59838;52.152;5.436;2023-12-29T01:40:45;100617.63;;;9.72;100.00
71970;BME280;59838;52.152;5.436;2023-12-29T01:43:12;100601.06;;;9.73;100.00
71970;BME280;59838;52.152;5.436;2023-12-29T01:45:39;100629.25;;;9.76;100.00
71970;BME280;59838;52.152;5.436;2023-12-29T01:48:18;100624.06;;;9.76;100.00
71970;BME280;59838;52.152;5.436;2023-12-29T01:50:45;100624.06;;;9.76;100.00
71970;BME280;59838;52.152;5.436;2023-12-29T01:53:13;100612.91;;;9.75;100.00
71970;BME280;59838;52.152;5.436;2023-12-29T01:55:39;100618.88;;;9.76;100.00
71970;BME280;59838;52.152;5.436;2023-12-29T01:58:06;100621.66;;;9.74;100.00
71970;BME280;59838;52.152;5.436;2023-12-29T02:00:33;100634.63;;;9.74;100.00
71970;BME280;59838;52.152;5.436;2023-12-29T02:03:00;100620.03;;;9.73;100.00
71970;BME280;59838;52.152;5.436;2023-12-29T02:05:29;100629.63;;;9.73;100.00
71970;BME280;59838;52.152;5.436;2023-12-29T02:07:58;100621.66;;;9.74;100.00
71970;BME280;59838;52.152;5.436;2023-12-29T02:10:25;100630.88;;;9.77;100.00
71970;BME280;59838;52.152;5.436;2023-12-29T02:12:53;100627.63;;;9.75;100.00
71970;BME280;59838;52.152;5.436;2023-12-29T02:15:24;100640.44;;;9.76;100.00
71970;BME280;59838;52.152;5.436;2023-12-29T02:18:00;100644.03;;;9.75;100.00
71970;BME280;59838;52.152;5.436;2023-12-29T02:20:29;100637.03;;;9.76;100.00
71970;BME280;59838;52.152;5.436;2023-12-29T02:22:56;100627.44;;;9.76;100.00
71970;BME280;59838;52.152;5.436;2023-12-29T02:25:22;100643.03;;;9.76;100.00
71970;BME280;59838;52.152;5.436;2023-12-29T02:27:52;100650.00;;;9.76;100.00
71970;BME280;59838;52.152;5.436;2023-12-29T02:30:27;100640.59;;;9.75;100.00
71970;BME280;59838;52.152;5.436;2023-12-29T02:32:59;100652.78;;;9.74;100.00
71970;BME280;59838;52.152;5.436;2023-12-29T02:35:28;100645.00;;;9.74;100.00
71970;BME280;59838;52.152;5.436;2023-12-29T02:37:59;100638.00;;;9.75;100.00
71970;BME280;59838;52.152;5.436;2023-12-29T02:40:26;100636.41;;;9.74;100.00
71970;BME280;59838;52.152;5.436;2023-12-29T02:42:52;100631.59;;;9.70;100.00
71970;BME280;59838;52.152;5.436;2023-12-29T02:45:19;100640.09;;;9.64;100.00
71970;BME280;59838;52.152;5.436;2023-12-29T02:47:46;100644.66;;;9.62;100.00
71970;BME280;59838;52.152;5.436;2023-12-29T02:50:13;100643.84;;;9.62;100.00
71970;BME280;59838;52.152;5.436;2023-12-29T02:52:40;100632.66;;;9.61;100.00
71970;BME280;59838;52.152;5.436;2023-12-29T02:55:07;100636.25;;;9.60;100.00
71970;BME280;59838;52.152;5.436;2023-12-29T02:57:33;100629.47;;;9.59;100.00
71970;BME280;59838;52.152;5.436;2023-12-29T03:00:00;100639.19;;;9.57;100.00
71970;BME280;59838;52.152;5.436;2023-12-29T03:02:27;100635.97;;;9.55;100.00
71970;BME280;59838;52.152;5.436;2023-12-29T03:04:53;100629.56;;;9.51;100.00
71970;BME280;59838;52.152;5.436;2023-12-29T03:07:20;100636.69;;;9.49;100.00
71970;BME280;59838;52.152;5.436;2023-12-29T03:09:46;100627.31;;;9.48;100.00
71970;BME280;59838;52.152;5.436;2023-12-29T03:12:14;100641.44;;;9.45;100.00
71970;BME280;59838;52.152;5.436;2023-12-29T03:14:41;100639.56;;;9.39;100.00
71970;BME280;59838;52.152;5.436;2023-12-29T03:17:07;100644.66;;;9.32;100.00
71970;BME280;59838;52.152;5.436;2023-12-29T03:19:34;100637.06;;;9.31;100.00
71970;BME280;59838;52.152;5.436;2023-12-29T03:22:01;100642.41;;;9.29;100.00
71970;BME280;59838;52.152;5.436;2023-12-29T03:24:31;100646.63;;;9.30;100.00
71970;BME280;59838;52.152;5.436;2023-12-29T03:26:59;100649.22;;;9.30;100.00
71970;BME280;59838;52.152;5.436;2023-12-29T03:29:26;100649.59;;;9.27;100.00
71970;BME280;59838;52.152;5.436;2023-12-29T03:31:52;100643.50;;;9.20;100.00
71970;BME280;59838;52.152;5.436;2023-12-29T03:34:19;100646.97;;;9.12;100.00
71970;BME280;59838;52.152;5.436;2023-12-29T03:36:46;100648.31;;;9.08;100.00
71970;BME280;59838;52.152;5.436;2023-12-29T03:39:13;100644.31;;;9.06;100.00
71970;BME280;59838;52.152;5.436;2023-12-29T03:41:39;100637.84;;;9.02;100.00
71970;BME280;59838;52.152;5.436;2023-12-29T03:44:06;100639.38;;;8.96;100.00
71970;BME280;59838;52.152;5.436;2023-12-29T03:46:32;100646.03;;;8.90;100.00
71970;BME280;59838;52.152;5.436;2023-12-29T03:48:59;100649.97;;;8.86;100.00
71970;BME280;59838;52.152;5.436;2023-12-29T03:51:26;100647.50;;;8.93;100.00
71970;BME280;59838;52.152;5.436;2023-12-29T03:53:52;100627.13;;;8.90;100.00
71970;BME280;59838;52.152;5.436;2023-12-29T03:56:19;100626.66;;;8.86;100.00
71970;BME280;59838;52.152;5.436;2023-12-29T03:58:46;100618.91;;;8.86;100.00
71970;BME280;59838;52.152;5.436;2023-12-29T04:01:14;100628.44;;;8.86;100.00
71970;BME280;59838;52.152;5.436;2023-12-29T04:03:41;100613.72;;;8.86;100.00
71970;BME280;59838;52.152;5.436;2023-12-29T04:06:09;100615.97;;;8.89;100.00
71970;BME280;59838;52.152;5.436;2023-12-29T04:08:37;100624.19;;;8.93;100.00
71970;BME280;59838;52.152;5.436;2023-12-29T04:11:04;100619.44;;;8.96;100.00
71970;BME280;59838;52.152;5.436;2023-12-29T04:13:31;100612.63;;;8.95;100.00
71970;BME280;59838;52.152;5.436;2023-12-29T04:15:58;100609.44;;;8.93;100.00
71970;BME280;59838;52.152;5.436;2023-12-29T04:18:24;100608.00;;;8.91;100.00
71970;BME280;59838;52.152;5.436;2023-12-29T04:20:51;100614.34;;;8.88;100.00
71970;BME280;59838;52.152;5.436;2023-12-29T04:23:17;100608.34;;;8.88;100.00
71970;BME280;59838;52.152;5.436;2023-12-29T04:25:44;100621.13;;;8.89;100.00
71970;BME280;59838;52.152;5.436;2023-12-29T04:28:10;100614.50;;;8.87;100.00
71970;BME280;59838;52.152;5.436;2023-12-29T04:30:37;100598.78;;;8.88;100.00
71970;BME280;59838;52.152;5.436;2023-12-29T04:33:05;100616.56;;;8.91;100.00
71970;BME280;59838;52.152;5.436;2023-12-29T04:35:31;100605.41;;;8.91;100.00
71970;BME280;59838;52.152;5.436;2023-12-29T04:37:58;100595.84;;;8.91;100.00
71970;BME280;59838;52.152;5.436;2023-12-29T04:40:24;100613.00;;;8.92;100.00
71970;BME280;59838;52.152;5.436;2023-12-29T04:42:51;100616.56;;;8.91;100.00
71970;BME280;59838;52.152;5.436;2023-12-29T04:45:18;100626.75;;;8.93;100.00
71970;BME280;59838;52.152;5.436;2023-12-29T04:47:45;100616.56;;;8.91;100.00
71970;BME280;59838;52.152;5.436;2023-12-29T04:50:12;100633.91;;;8.91;100.00
71970;BME280;59838;52.152;5.436;2023-12-29T04:52:38;100614.59;;;8.93;100.00
71970;BME280;59838;52.152;5.436;2023-12-29T04:55:05;100606.13;;;9.00;100.00
71970;BME280;59838;52.152;5.436;2023-12-29T04:57:32;100608.38;;;9.03;100.00
71970;BME280;59838;52.152;5.436;2023-12-29T04:59:59;100614.34;;;9.03;100.00
71970;BME280;59838;52.152;5.436;2023-12-29T05:02:25;100604.34;;;9.00;100.00
71970;BME280;59838;52.152;5.436;2023-12-29T05:04:52;100599.59;;;9.04;100.00
71970;BME280;59838;52.152;5.436;2023-12-29T05:07:18;100592.47;;;9.06;100.00
71970;BME280;59838;52.152;5.436;2023-12-29T05:09:45;100603.28;;;9.09;100.00
71970;BME280;59838;52.152;5.436;2023-12-29T05:12:14;100602.94;;;9.12;100.00
71970;BME280;59838;52.152;5.436;2023-12-29T05:14:42;100599.53;;;9.12;100.00
71970;BME280;59838;52.152;5.436;2023-12-29T05:17:10;100604.16;;;9.17;100.00
71970;BME280;59838;52.152;5.436;2023-12-29T05:19:37;100601.13;;;9.13;100.00
71970;BME280;59838;52.152;5.436;2023-12-29T05:22:03;100588.97;;;9.13;100.00
71970;BME280;59838;52.152;5.436;2023-12-29T05:24:30;100609.34;;;9.17;100.00
71970;BME280;59838;52.152;5.436;2023-12-29T05:26:58;100608.38;;;9.18;100.00
71970;BME280;59838;52.152;5.436;2023-12-29T05:29:24;100591.03;;;9.18;100.00
71970;BME280;59838;52.152;5.436;2023-12-29T05:31:51;100610.59;;;9.21;100.00
71970;BME280;59838;52.152;5.436;2023-12-29T05:34:17;100609.81;;;9.20;100.00
71970;BME280;59838;52.152;5.436;2023-12-29T05:36:45;100613.81;;;9.23;100.00
71970;BME280;59838;52.152;5.436;2023-12-29T05:39:15;100618.03;;;9.24;100.00
71970;BME280;59838;52.152;5.436;2023-12-29T05:41:42;100609.25;;;9.25;100.00
71970;BME280;59838;52.152;5.436;2023-12-29T05:44:08;100611.66;;;9.26;100.00
71970;BME280;59838;52.152;5.436;2023-12-29T05:46:35;100620.63;;;9.24;100.00
71970;BME280;59838;52.152;5.436;2023-12-29T05:49:02;100599.44;;;9.20;100.00
71970;BME280;59838;52.152;5.436;2023-12-29T05:51:28;100610.00;;;9.19;100.00
71970;BME280;59838;52.152;5.436;2023-12-29T05:53:57;100608.03;;;9.21;100.00
71970;BME280;59838;52.152;5.436;2023-12-29T05:56:24;100602.31;;;9.25;100.00
71970;BME280;59838;52.152;5.436;2023-12-29T05:58:51;100613.13;;;9.29;100.00
71970;BME280;59838;52.152;5.436;2023-12-29T06:01:19;100599.19;;;9.30;100.00
71970;BME280;59838;52.152;5.436;2023-12-29T06:03:46;100615.69;;;9.29;100.00
71970;BME280;59838;52.152;5.436;2023-12-29T06:06:13;100610.09;;;9.25;100.00
71970;BME280;59838;52.152;5.436;2023-12-29T06:08:39;100595.50;;;9.24;100.00
71970;BME280;59838;52.152;5.436;2023-12-29T06:11:06;100620.09;;;9.28;100.00
71970;BME280;59838;52.152;5.436;2023-12-29T06:13:33;100612.13;;;9.30;100.00
71970;BME280;59838;52.152;5.436;2023-12-29T06:16:00;100600.59;;;9.32;100.00
71970;BME280;59838;52.152;5.436;2023-12-29T06:18:27;100629.38;;;9.38;100.00
71970;BME280;59838;52.152;5.436;2023-12-29T06:20:54;100626.78;;;9.38;100.00
71970;BME280;59838;52.152;5.436;2023-12-29T06:23:21;100627.59;;;9.38;100.00
71970;BME280;59838;52.152;5.436;2023-12-29T06:25:47;100628.41;;;9.39;100.00
71970;BME280;59838;52.152;5.436;2023-12-29T06:28:14;100624.81;;;9.40;100.00
71970;BME280;59838;52.152;5.436;2023-12-29T06:30:40;100616.03;;;9.41;100.00
71970;BME280;59838;52.152;5.436;2023-12-29T06:33:07;100616.69;;;9.43;100.00
71970;BME280;59838;52.152;5.436;2023-12-29T06:35:34;100613.28;;;9.42;100.00
71970;BME280;59838;52.152;5.436;2023-12-29T06:38:01;100611.50;;;9.43;100.00
71970;BME280;59838;52.152;5.436;2023-12-29T06:40:27;100608.91;;;9.43;100.00
71970;BME280;59838;52.152;5.436;2023-12-29T06:42:54;100608.75;;;9.44;100.00
71970;BME280;59838;52.152;5.436;2023-12-29T06:45:20;100618.09;;;9.45;100.00
71970;BME280;59838;52.152;5.436;2023-12-29T06:47:47;100607.72;;;9.45;100.00
71970;BME280;59838;52.152;5.436;2023-12-29T06:50:13;100620.53;;;9.47;100.00
71970;BME280;59838;52.152;5.436;2023-12-29T06:52:40;100610.75;;;9.49;100.00
71970;BME280;59838;52.152;5.436;2023-12-29T06:55:07;100598.97;;;9.46;100.00
71970;BME280;59838;52.152;5.436;2023-12-29T06:57:34;100599.94;;;9.45;100.00
71970;BME280;59838;52.152;5.436;2023-12-29T07:00:01;100585.19;;;9.46;100.00
71970;BME280;59838;52.152;5.436;2023-12-29T07:02:28;100595.78;;;9.44;100.00
71970;BME280;59838;52.152;5.436;2023-12-29T07:04:54;100604.53;;;9.43;100.00
71970;BME280;59838;52.152;5.436;2023-12-29T07:07:21;100599.06;;;9.38;100.00
71970;BME280;59838;52.152;5.436;2023-12-29T07:09:48;100594.06;;;9.37;100.00
71970;BME280;59838;52.152;5.436;2023-12-29T07:12:15;100596.84;;;9.35;100.00
71970;BME280;59838;52.152;5.436;2023-12-29T07:14:42;100617.06;;;9.40;100.00
71970;BME280;59838;52.152;5.436;2023-12-29T07:17:09;100606.03;;;9.38;100.00
71970;BME280;59838;52.152;5.436;2023-12-29T07:19:36;100601.66;;;9.38;100.00
71970;BME280;59838;52.152;5.436;2023-12-29T07:22:04;100605.84;;;9.39;100.00
71970;BME280;59838;52.152;5.436;2023-12-29T07:24:35;100603.25;;;9.39;100.00
71970;BME280;59838;52.152;5.436;2023-12-29T07:27:03;100601.84;;;9.37;100.00
71970;BME280;59838;52.152;5.436;2023-12-29T07:29:30;100599.06;;;9.38;100.00
71970;BME280;59838;52.152;5.436;2023-12-29T07:31:57;100619.00;;;9.38;100.00
71970;BME280;59838;52.152;5.436;2023-12-29T07:34:23;100618.38;;;9.36;100.00
71970;BME280;59838;52.152;5.436;2023-12-29T07:36:50;100629.53;;;9.36;100.00
71970;BME280;59838;52.152;5.436;2023-12-29T07:39:17;100621.78;;;9.36;100.00
71970;BME280;59838;52.152;5.436;2023-12-29T07:41:44;100624.19;;;9.38;100.00
71970;BME280;59838;52.152;5.436;2023-12-29T07:44:11;100618.19;;;9.37;100.00
71970;BME280;59838;52.152;5.436;2023-12-29T07:46:39;100621.78;;;9.36;100.00
71970;BME280;59838;52.152;5.436;2023-12-29T07:49:06;100620.00;;;9.37;100.00
71970;BME280;59838;52.152;5.436;2023-12-29T07:51:42;100612.41;;;9.35;100.00
71970;BME280;59838;52.152;5.436;2023-12-29T07:54:09;100625.53;;;9.33;100.00
71970;BME280;59838;52.152;5.436;2023-12-29T07:56:36;100627.50;;;9.31;100.00
71970;BME280;59838;52.152;5.436;2023-12-29T07:59:04;100634.47;;;9.31;100.00
71970;BME280;59838;52.152;5.436;2023-12-29T08:01:30;100635.13;;;9.33;100.00
71970;BME280;59838;52.152;5.436;2023-12-29T08:03:57;100634.28;;;9.32;100.00
71970;BME280;59838;52.152;5.436;2023-12-29T08:06:24;100641.09;;;9.33;100.00
71970;BME280;59838;52.152;5.436;2023-12-29T08:08:50;100647.25;;;9.32;100.00
71970;BME280;59838;52.152;5.436;2023-12-29T08:11:17;100639.47;;;9.32;100.00
71970;BME280;59838;52.152;5.436;2023-12-29T08:13:46;100635.72;;;9.35;100.00
71970;BME280;59838;52.152;5.436;2023-12-29T08:16:13;100632.13;;;9.36;100.00
71970;BME280;59838;52.152;5.436;2023-12-29T08:18:40;100625.19;;;9.37;100.00
71970;BME280;59838;52.152;5.436;2023-12-29T08:21:07;100624.00;;;9.39;100.00
71970;BME280;59838;52.152;5.436;2023-12-29T08:23:33;100637.78;;;9.40;100.00
71970;BME280;59838;52.152;5.436;2023-12-29T08:26:02;100639.56;;;9.39;100.00
71970;BME280;59838;52.152;5.436;2023-12-29T08:28:30;100639.56;;;9.39;100.00
71970;BME280;59838;52.152;5.436;2023-12-29T08:30:56;100645.56;;;9.40;100.00
71970;BME280;59838;52.152;5.436;2023-12-29T08:33:23;100650.09;;;9.38;100.00
71970;BME280;59838;52.152;5.436;2023-12-29T08:35:50;100639.13;;;9.36;100.00
71970;BME280;59838;52.152;5.436;2023-12-29T08:38:16;100632.34;;;9.35;100.00
71970;BME280;59838;52.152;5.436;2023-12-29T08:40:43;100638.50;;;9.33;100.00
71970;BME280;59838;52.152;5.436;2023-12-29T08:43:10;100642.25;;;9.31;100.00
71970;BME280;59838;52.152;5.436;2023-12-29T08:45:36;100638.50;;;9.33;100.00
71970;BME280;59838;52.152;5.436;2023-12-29T08:48:05;100628.75;;;9.36;100.00
71970;BME280;59838;52.152;5.436;2023-12-29T08:50:32;100620.19;;;9.35;100.00
71970;BME280;59838;52.152;5.436;2023-12-29T08:52:58;100628.41;;;9.39;100.00
71970;BME280;59838;52.152;5.436;2023-12-29T08:55:25;100638.75;;;9.39;100.00
71970;BME280;59838;52.152;5.436;2023-12-29T08:57:51;100636.16;;;9.39;100.00
71970;BME280;59838;52.152;5.436;2023-12-29T09:00:18;100638.59;;;9.40;100.00
71970;BME280;59838;52.152;5.436;2023-12-29T09:02:44;100641.34;;;9.39;100.00
71970;BME280;59838;52.152;5.436;2023-12-29T09:05:12;100626.78;;;9.38;100.00
71970;BME280;59838;52.152;5.436;2023-12-29T09:07:39;100642.34;;;9.38;100.00
71970;BME280;59838;52.152;5.436;2023-12-29T09:10:06;100640.75;;;9.37;100.00
71970;BME280;59838;52.152;5.436;2023-12-29T09:12:39;100644.31;;;9.36;100.00
71970;BME280;59838;52.152;5.436;2023-12-29T09:15:06;100638.50;;;9.33;100.00
71970;BME280;59838;52.152;5.436;2023-12-29T09:17:33;100642.06;;;9.32;100.00
71970;BME280;59838;52.152;5.436;2023-12-29T09:20:01;100643.06;;;9.31;100.00
71970;BME280;59838;52.152;5.436;2023-12-29T09:22:36;100639.13;;;9.36;100.00
71970;BME280;59838;52.152;5.436;2023-12-29T09:25:02;100636.34;;;9.37;100.00
71970;BME280;59838;52.152;5.436;2023-12-29T09:27:29;100653.19;;;9.41;100.00
71970;BME280;59838;52.152;5.436;2023-12-29T09:29:56;100652.00;;;9.44;100.00
71970;BME280;59838;52.152;5.436;2023-12-29T09:32:22;100634.28;;;9.47;100.00
71970;BME280;59838;52.152;5.436;2023-12-29T09:34:49;100652.53;;;9.54;100.00
71970;BME280;59838;52.152;5.436;2023-12-29T09:37:17;100661.56;;;9.58;100.00
71970;BME280;59838;52.152;5.436;2023-12-29T09:39:44;100660.22;;;9.62;100.00
71970;BME280;59838;52.152;5.436;2023-12-29T09:42:16;100672.28;;;9.70;100.00
71970;BME280;59838;52.152;5.436;2023-12-29T09:44:49;100671.38;;;9.78;100.00
71970;BME280;59838;52.152;5.436;2023-12-29T09:47:20;100663.84;;;9.83;100.00
71970;BME280;59838;52.152;5.436;2023-12-29T09:49:49;100647.91;;;9.86;100.00
71970;BME280;59838;52.152;5.436;2023-12-29T09:52:18;100646.59;;;9.90;100.00
71970;BME280;59838;52.152;5.436;2023-12-29T09:54:52;100656.59;;;9.93;100.00
71970;BME280;59838;52.152;5.436;2023-12-29T09:57:19;100644.25;;;9.95;100.00
71970;BME280;59838;52.152;5.436;2023-12-29T09:59:49;100644.69;;;9.99;100.00
71970;BME280;59838;52.152;5.436;2023-12-29T10:02:19;100654.69;;;10.02;100.00
71970;BME280;59838;52.152;5.436;2023-12-29T10:04:47;100649.31;;;10.03;100.00
71970;BME280;59838;52.152;5.436;2023-12-29T10:07:20;100656.94;;;10.05;100.00
71970;BME280;59838;52.152;5.436;2023-12-29T10:09:52;100658.53;;;10.06;100.00
71970;BME280;59838;52.152;5.436;2023-12-29T10:12:21;100646.19;;;10.08;100.00
71970;BME280;59838;52.152;5.436;2023-12-29T10:14:52;100655.38;;;10.11;100.00
71970;BME280;59838;52.152;5.436;2023-12-29T10:18:22;100655.84;;;10.14;100.00
71970;BME280;59838;52.152;5.436;2023-12-29T10:20:28;100646.25;;;10.15;100.00
71970;BME280;59838;52.152;5.436;2023-12-29T10:23:10;100650.72;;;10.21;100.00
71970;BME280;59838;52.152;5.436;2023-12-29T10:25:39;100662.78;;;10.29;100.00
71970;BME280;59838;52.152;5.436;2023-12-29T10:28:07;100656.56;;;10.30;100.00
71970;BME280;59838;52.152;5.436;2023-12-29T10:30:36;100656.38;;;10.31;100.00
71970;BME280;59838;52.152;5.436;2023-12-29T10:33:04;100658.66;;;10.34;100.00
71970;BME280;59838;52.152;5.436;2023-12-29T10:35:32;100662.50;;;10.38;100.00
71970;BME280;59838;52.152;5.436;2023-12-29T10:38:10;100659.97;;;10.45;100.00
71970;BME280;59838;52.152;5.436;2023-12-29T10:40:38;100641.03;;;10.51;100.00
71970;BME280;59838;52.152;5.436;2023-12-29T10:43:05;100654.47;;;10.55;100.00
71970;BME280;59838;52.152;5.436;2023-12-29T10:45:34;100655.25;;;10.55;100.00
71970;BME280;59838;52.152;5.436;2023-12-29T10:48:01;100660.63;;;10.54;100.00
71970;BME280;59838;52.152;5.436;2023-12-29T10:50:28;100659.28;;;10.58;100.00
71970;BME280;59838;52.152;5.436;2023-12-29T10:53:14;100671.72;;;10.63;100.00
71970;BME280;59838;52.152;5.436;2023-12-29T10:55:40;100688.09;;;10.63;100.00
71970;BME280;59838;52.152;5.436;2023-12-29T10:58:08;100668.91;;;10.64;100.00
71970;BME280;59838;52.152;5.436;2023-12-29T11:00:34;100692.28;;;10.64;100.00
71970;BME280;59838;52.152;5.436;2023-12-29T11:03:01;100688.66;;;10.58;100.00
71970;BME280;59838;52.152;5.436;2023-12-29T11:05:28;100672.81;;;10.53;100.00
71970;BME280;59838;52.152;5.436;2023-12-29T11:07:55;100678.75;;;10.47;100.00
71970;BME280;59838;52.152;5.436;2023-12-29T11:10:22;100679.91;;;10.45;100.00
71970;BME280;59838;52.152;5.436;2023-12-29T11:12:49;100666.56;;;10.48;100.00
71970;BME280;59838;52.152;5.436;2023-12-29T11:15:16;100681.16;;;10.49;100.00
71970;BME280;59838;52.152;5.436;2023-12-29T11:17:43;100682.16;;;10.48;100.00
71970;BME280;59838;52.152;5.436;2023-12-29T11:20:16;100688.34;;;10.47;100.00
71970;BME280;59838;52.152;5.436;2023-12-29T11:22:45;100690.75;;;10.48;100.00
71970;BME280;59838;52.152;5.436;2023-12-29T11:25:14;100693.59;;;10.53;100.00
71970;BME280;59838;52.152;5.436;2023-12-29T11:27:42;100699.22;;;10.57;100.00
71970;BME280;59838;52.152;5.436;2023-12-29T11:30:11;100694.09;;;10.64;100.00
71970;BME280;59838;52.152;5.436;2023-12-29T11:35:26;100703.97;;;10.75;100.00
71970;BME280;59838;52.152;5.436;2023-12-29T11:38:23;100698.22;;;10.79;100.00
71970;BME280;59838;52.152;5.436;2023-12-29T11:41:10;100699.47;;;10.84;100.00
71970;BME280;59838;52.152;5.436;2023-12-29T11:43:38;100687.28;;;10.84;100.00
71970;BME280;59838;52.152;5.436;2023-12-29T11:46:04;100699.06;;;10.87;100.00
71970;BME280;59838;52.152;5.436;2023-12-29T11:48:57;100706.50;;;10.90;100.00
71970;BME280;59838;52.152;5.436;2023-12-29T11:53:55;100692.34;;;10.92;100.00
71970;BME280;59838;52.152;5.436;2023-12-29T11:56:22;100699.94;;;10.94;100.00
71970;BME280;59838;52.152;5.436;2023-12-29T11:58:49;100698.97;;;10.95;100.00
71970;BME280;59838;52.152;5.436;2023-12-29T12:01:33;100695.16;;;10.97;100.00
71970;BME280;59838;52.152;5.436;2023-12-29T12:04:00;100700.19;;;10.99;100.00
71970;BME280;59838;52.152;5.436;2023-12-29T12:06:39;100683.97;;;10.97;100.00
71970;BME280;59838;52.152;5.436;2023-12-29T12:09:22;100695.16;;;10.97;100.00
71970;BME280;59838;52.152;5.436;2023-12-29T12:11:50;100703.94;;;10.96;100.00
71970;BME280;59838;52.152;5.436;2023-12-29T12:14:52;100697.34;;;10.94;100.00
71970;BME280;59838;52.152;5.436;2023-12-29T12:17:30;100696.94;;;10.90;100.00
71970;BME280;59838;52.152;5.436;2023-12-29T12:20:09;100696.28;;;10.88;100.00
71970;BME280;59838;52.152;5.436;2023-12-29T12:22:37;100699.06;;;10.87;100.00
71970;BME280;59838;52.152;5.436;2023-12-29T12:25:05;100686.06;;;10.87;100.00
71970;BME280;59838;52.152;5.436;2023-12-29T12:27:33;100674.69;;;10.88;100.00
71970;BME280;59838;52.152;5.436;2023-12-29T12:30:00;100671.50;;;10.86;100.00
71970;BME280;59838;52.152;5.436;2023-12-29T12:32:27;100680.28;;;10.85;100.00
71970;BME280;59838;52.152;5.436;2023-12-29T12:34:54;100669.13;;;10.91;100.00
71970;BME280;59838;52.152;5.436;2023-12-29T12:37:23;100674.94;;;10.93;100.00
71970;BME280;59838;52.152;5.436;2023-12-29T12:39:49;100679.94;;;10.94;100.00
71970;BME280;59838;52.152;5.436;2023-12-29T12:42:16;100679.94;;;10.94;100.00
71970;BME280;59838;52.152;5.436;2023-12-29T12:45:03;100677.97;;;10.96;100.00
71970;BME280;59838;52.152;5.436;2023-12-29T12:47:36;100669.97;;;10.98;100.00
71970;BME280;59838;52.152;5.436;2023-12-29T12:50:04;100681.56;;;10.95;100.00
71970;BME280;59838;52.152;5.436;2023-12-29T12:52:32;100675.56;;;10.95;100.00
71970;BME280;59838;52.152;5.436;2023-12-29T12:54:59;100665.75;;;10.90;100.00
71970;BME280;59838;52.152;5.436;2023-12-29T12:57:27;100657.94;;;10.90;100.00